createdAt,value
2023-02-27T00:00:32.585Z,0
2023-02-27T00:01:32.627Z,0
2023-02-27T00:02:32.630Z,0
2023-02-27T00:03:32.613Z,0
2023-02-27T00:04:32.583Z,0
2023-02-27T00:05:32.586Z,0
2023-02-27T00:06:32.592Z,0
2023-02-27T00:07:32.564Z,0
2023-02-27T00:08:32.613Z,0
2023-02-27T00:09:33.110Z,0
2023-02-27T00:10:32.544Z,0
2023-02-27T00:11:32.625Z,0
2023-02-27T00:12:32.606Z,0
2023-02-27T00:13:32.600Z,0
2023-02-27T00:14:32.588Z,0
2023-02-27T00:15:32.589Z,0
2023-02-27T00:16:32.584Z,0
2023-02-27T00:17:32.592Z,0
2023-02-27T00:18:32.547Z,0
2023-02-27T00:19:33.082Z,0
2023-02-27T00:20:32.579Z,0
2023-02-27T00:21:32.690Z,0
2023-02-27T00:22:32.596Z,0
2023-02-27T00:23:32.607Z,0
2023-02-27T00:24:32.650Z,0
2023-02-27T00:25:32.552Z,0
2023-02-27T00:26:32.563Z,0
2023-02-27T00:27:32.611Z,0
2023-02-27T00:28:32.559Z,0
2023-02-27T00:29:33.138Z,0
2023-02-27T00:30:32.589Z,0
2023-02-27T00:31:32.748Z,0
2023-02-27T00:32:32.627Z,0
2023-02-27T00:33:32.581Z,0
2023-02-27T00:34:32.564Z,0
2023-02-27T00:35:32.683Z,0
2023-02-27T00:36:32.575Z,0
2023-02-27T00:37:32.590Z,0
2023-02-27T00:38:32.575Z,0
2023-02-27T00:39:32.576Z,0
2023-02-27T00:40:32.599Z,0
2023-02-27T00:41:32.557Z,0
2023-02-27T00:42:32.567Z,0
2023-02-27T00:43:32.560Z,0
2023-02-27T00:44:32.602Z,0
2023-02-27T00:45:32.607Z,0
2023-02-27T00:46:32.672Z,0
2023-02-27T00:47:32.596Z,0
2023-02-27T00:48:32.598Z,0
2023-02-27T00:49:32.568Z,0
2023-02-27T00:50:32.571Z,0
2023-02-27T00:51:32.580Z,0
2023-02-27T00:52:32.574Z,0
2023-02-27T00:53:32.560Z,0
2023-02-27T00:54:32.563Z,0
2023-02-27T00:55:32.580Z,0
2023-02-27T00:56:32.551Z,0
2023-02-27T00:57:32.658Z,0
2023-02-27T00:58:32.548Z,0
2023-02-27T00:59:32.577Z,0
2023-02-27T01:00:32.624Z,0
2023-02-27T01:01:32.568Z,0
2023-02-27T01:02:32.601Z,0
2023-02-27T01:03:32.647Z,0
2023-02-27T01:04:32.553Z,0
2023-02-27T01:05:32.565Z,0
2023-02-27T01:06:32.531Z,0
2023-02-27T01:07:32.580Z,0
2023-02-27T01:08:32.577Z,0
2023-02-27T01:09:33.209Z,0
2023-02-27T01:10:32.542Z,0
2023-02-27T01:11:32.622Z,0
2023-02-27T01:12:32.583Z,0
2023-02-27T01:13:32.556Z,0
2023-02-27T01:14:32.577Z,0
2023-02-27T01:15:32.662Z,0
2023-02-27T01:16:32.644Z,0
2023-02-27T01:17:32.559Z,0
2023-02-27T01:18:32.559Z,0
2023-02-27T01:19:33.033Z,0
2023-02-27T01:20:32.587Z,0
2023-02-27T01:21:32.563Z,0
2023-02-27T01:22:32.587Z,0
2023-02-27T01:23:32.538Z,0
2023-02-27T01:24:32.720Z,0
2023-02-27T01:25:32.702Z,0
2023-02-27T01:26:32.566Z,0
2023-02-27T01:27:32.583Z,0
2023-02-27T01:28:32.564Z,0
2023-02-27T01:29:33.404Z,0
2023-02-27T01:30:32.648Z,0
2023-02-27T01:31:32.629Z,0
2023-02-27T01:32:32.580Z,0
2023-02-27T01:33:32.580Z,0
2023-02-27T01:34:34.255Z,0
2023-02-27T01:35:32.712Z,0
2023-02-27T01:36:32.576Z,0
2023-02-27T01:37:32.568Z,0
2023-02-27T01:38:32.616Z,0
2023-02-27T01:39:32.562Z,0
2023-02-27T01:40:32.716Z,0
2023-02-27T01:41:32.655Z,0
2023-02-27T01:42:32.746Z,0
2023-02-27T01:43:32.694Z,0
2023-02-27T01:44:32.707Z,0
2023-02-27T01:45:32.781Z,0
2023-02-27T01:46:32.683Z,0
2023-02-27T01:47:32.835Z,0
2023-02-27T01:48:32.665Z,0
2023-02-27T01:49:33.019Z,0
2023-02-27T01:50:32.766Z,0
2023-02-27T01:51:32.732Z,0
2023-02-27T01:52:32.683Z,0
2023-02-27T01:53:32.697Z,0
2023-02-27T01:54:32.768Z,0
2023-02-27T01:55:32.601Z,0
2023-02-27T01:56:32.583Z,0
2023-02-27T01:57:32.583Z,0
2023-02-27T01:58:32.576Z,0
2023-02-27T01:59:32.564Z,0
2023-02-27T02:00:32.583Z,0
2023-02-27T02:01:32.667Z,0
2023-02-27T02:02:32.663Z,0
2023-02-27T02:03:32.563Z,0
2023-02-27T02:04:32.588Z,0
2023-02-27T02:05:32.558Z,0
2023-02-27T02:06:32.573Z,0
2023-02-27T02:07:32.561Z,0
2023-02-27T02:08:32.566Z,0
2023-02-27T02:09:33.333Z,0
2023-02-27T02:10:32.548Z,0
2023-02-27T02:11:32.540Z,0
2023-02-27T02:12:32.563Z,0
2023-02-27T02:13:32.558Z,0
2023-02-27T02:14:32.600Z,0
2023-02-27T02:15:32.556Z,0
2023-02-27T02:16:32.647Z,0
2023-02-27T02:17:32.570Z,0
2023-02-27T02:18:32.578Z,0
2023-02-27T02:19:33.276Z,0
2023-02-27T02:20:32.547Z,0
2023-02-27T02:21:32.578Z,0
2023-02-27T02:22:32.556Z,0
2023-02-27T02:23:32.578Z,0
2023-02-27T02:24:32.615Z,0
2023-02-27T02:25:32.587Z,0
2023-02-27T02:26:33.597Z,0
2023-02-27T02:27:32.573Z,0
2023-02-27T02:28:32.532Z,0
2023-02-27T02:29:32.588Z,0
2023-02-27T02:30:32.647Z,0
2023-02-27T02:31:32.789Z,0
2023-02-27T02:32:32.616Z,0
2023-02-27T02:33:32.580Z,0
2023-02-27T02:34:32.580Z,0
2023-02-27T02:35:32.578Z,0
2023-02-27T02:36:32.580Z,0
2023-02-27T02:37:32.591Z,0
2023-02-27T02:38:32.567Z,0
2023-02-27T02:39:33.065Z,0
2023-02-27T02:40:32.570Z,0
2023-02-27T02:41:32.562Z,0
2023-02-27T02:42:32.564Z,0
2023-02-27T02:43:32.558Z,0
2023-02-27T02:44:32.624Z,0
2023-02-27T02:45:32.584Z,0
2023-02-27T02:46:32.557Z,0
2023-02-27T02:47:32.568Z,0
2023-02-27T02:48:32.553Z,0
2023-02-27T02:49:32.597Z,0
2023-02-27T02:50:32.555Z,0
2023-02-27T02:51:32.559Z,0
2023-02-27T02:52:32.589Z,0
2023-02-27T02:53:37.125Z,0
2023-02-27T02:54:32.550Z,0
2023-02-27T02:55:32.722Z,0
2023-02-27T02:56:32.566Z,0
2023-02-27T02:57:32.559Z,0
2023-02-27T02:58:32.571Z,0
2023-02-27T02:59:32.977Z,0
2023-02-27T03:00:32.578Z,0
2023-02-27T03:01:32.766Z,0
2023-02-27T03:02:32.563Z,0
2023-02-27T03:03:32.574Z,0
2023-02-27T03:04:32.700Z,0
2023-02-27T03:05:32.591Z,0
2023-02-27T03:06:32.575Z,0
2023-02-27T03:07:32.689Z,0
2023-02-27T03:08:32.540Z,0
2023-02-27T03:09:32.600Z,0
2023-02-27T03:10:32.600Z,0
2023-02-27T03:11:32.555Z,0
2023-02-27T03:12:32.606Z,0
2023-02-27T03:13:32.683Z,0
2023-02-27T03:14:32.711Z,0
2023-02-27T03:15:32.567Z,0
2023-02-27T03:16:32.689Z,0
2023-02-27T03:17:32.713Z,0
2023-02-27T03:18:32.553Z,0
2023-02-27T03:19:32.529Z,0
2023-02-27T03:20:32.695Z,0
2023-02-27T03:21:32.580Z,0
2023-02-27T03:22:32.557Z,0
2023-02-27T03:23:32.661Z,0
2023-02-27T03:24:32.614Z,0
2023-02-27T03:25:32.717Z,0
2023-02-27T03:26:32.534Z,0
2023-02-27T03:27:32.528Z,0
2023-02-27T03:28:32.564Z,0
2023-02-27T03:29:32.679Z,0
2023-02-27T03:30:32.603Z,0
2023-02-27T03:31:32.693Z,0
2023-02-27T03:32:32.602Z,0
2023-02-27T03:33:32.561Z,0
2023-02-27T03:34:32.685Z,0
2023-02-27T03:35:32.640Z,0
2023-02-27T03:36:32.710Z,0
2023-02-27T03:37:32.609Z,0
2023-02-27T03:38:32.647Z,0
2023-02-27T03:39:32.607Z,0
2023-02-27T03:40:32.875Z,0
2023-02-27T03:41:32.659Z,0
2023-02-27T03:42:32.569Z,0
2023-02-27T03:43:32.644Z,0
2023-02-27T03:44:32.699Z,0
2023-02-27T03:45:32.714Z,0
2023-02-27T03:46:32.581Z,0
2023-02-27T03:47:32.622Z,0
2023-02-27T03:48:32.605Z,0
2023-02-27T03:49:32.701Z,0
2023-02-27T03:50:32.528Z,0
2023-02-27T03:51:32.654Z,0
2023-02-27T03:52:32.597Z,0
2023-02-27T03:53:32.531Z,0
2023-02-27T03:54:32.526Z,0
2023-02-27T03:55:32.648Z,0
2023-02-27T03:56:32.541Z,0
2023-02-27T03:57:32.532Z,0
2023-02-27T03:58:32.585Z,0
2023-02-27T03:59:32.525Z,0
2023-02-27T04:00:32.545Z,0
2023-02-27T04:01:32.601Z,0
2023-02-27T04:02:32.600Z,0
2023-02-27T04:03:32.582Z,0
2023-02-27T04:04:32.591Z,0
2023-02-27T04:05:32.565Z,0
2023-02-27T04:06:32.551Z,0
2023-02-27T04:07:32.553Z,0
2023-02-27T04:08:32.560Z,0
2023-02-27T04:09:33.469Z,0
2023-02-27T04:10:32.560Z,0
2023-02-27T04:11:32.545Z,0
2023-02-27T04:12:32.545Z,0
2023-02-27T04:13:32.547Z,0
2023-02-27T04:14:32.530Z,0
2023-02-27T04:15:32.532Z,0
2023-02-27T04:16:32.562Z,0
2023-02-27T04:17:32.564Z,0
2023-02-27T04:18:32.550Z,0
2023-02-27T04:19:32.547Z,0
2023-02-27T04:20:32.542Z,0
2023-02-27T04:21:32.582Z,0
2023-02-27T04:22:32.569Z,0
2023-02-27T04:23:32.516Z,0
2023-02-27T04:24:32.514Z,0
2023-02-27T04:25:32.541Z,0
2023-02-27T04:26:32.525Z,0
2023-02-27T04:27:32.521Z,0
2023-02-27T04:28:32.520Z,0
2023-02-27T04:29:33.415Z,0
2023-02-27T04:30:32.598Z,0
2023-02-27T04:31:32.644Z,0
2023-02-27T04:32:32.663Z,0
2023-02-27T04:33:32.546Z,0
2023-02-27T04:34:32.576Z,0
2023-02-27T04:35:32.549Z,0
2023-02-27T04:36:32.512Z,0
2023-02-27T04:37:32.571Z,0
2023-02-27T04:38:32.562Z,0
2023-02-27T04:39:33.282Z,0
2023-02-27T04:40:32.536Z,0
2023-02-27T04:41:32.613Z,0
2023-02-27T04:42:32.597Z,0
2023-02-27T04:43:32.563Z,0
2023-02-27T04:44:32.532Z,0
2023-02-27T04:45:32.613Z,0
2023-02-27T04:46:32.566Z,0
2023-02-27T04:47:32.527Z,0
2023-02-27T04:48:32.521Z,0
2023-02-27T04:49:32.568Z,0
2023-02-27T04:50:32.540Z,0
2023-02-27T04:51:32.546Z,0
2023-02-27T04:52:32.536Z,0
2023-02-27T04:53:32.565Z,0
2023-02-27T04:54:32.569Z,0
2023-02-27T04:55:32.556Z,0
2023-02-27T04:56:32.553Z,0
2023-02-27T04:57:32.576Z,0
2023-02-27T04:58:32.565Z,0
2023-02-27T04:59:32.526Z,0
2023-02-27T05:00:32.555Z,0
2023-02-27T05:01:32.590Z,0
2023-02-27T05:02:32.716Z,0
2023-02-27T05:03:32.565Z,0
2023-02-27T05:04:32.544Z,0
2023-02-27T05:05:32.558Z,0
2023-02-27T05:06:32.564Z,0
2023-02-27T05:07:32.530Z,0
2023-02-27T05:08:32.545Z,0
2023-02-27T05:09:33.740Z,0
2023-02-27T05:10:32.540Z,0
2023-02-27T05:11:32.508Z,0
2023-02-27T05:12:32.520Z,0
2023-02-27T05:13:32.565Z,0
2023-02-27T05:14:32.558Z,0
2023-02-27T05:15:32.547Z,0
2023-02-27T05:16:32.644Z,0
2023-02-27T05:17:32.567Z,0
2023-02-27T05:18:32.662Z,0
2023-02-27T05:19:32.530Z,0
2023-02-27T05:20:32.579Z,0
2023-02-27T05:21:32.562Z,0
2023-02-27T05:22:32.524Z,0
2023-02-27T05:23:32.517Z,0
2023-02-27T05:24:32.585Z,0
2023-02-27T05:25:32.602Z,0
2023-02-27T05:26:32.524Z,0
2023-02-27T05:27:32.565Z,0
2023-02-27T05:28:32.609Z,0
2023-02-27T05:29:33.868Z,0
2023-02-27T05:30:32.534Z,0
2023-02-27T05:31:32.599Z,0
2023-02-27T05:32:32.580Z,0
2023-02-27T05:33:32.523Z,0
2023-02-27T05:34:32.524Z,0
2023-02-27T05:35:32.611Z,0
2023-02-27T05:36:32.561Z,0
2023-02-27T05:37:32.535Z,0
2023-02-27T05:38:32.525Z,0
2023-02-27T05:39:35.202Z,0
2023-02-27T05:40:32.592Z,0
2023-02-27T05:41:32.518Z,0
2023-02-27T05:42:32.551Z,0
2023-02-27T05:43:32.535Z,0
2023-02-27T05:44:32.573Z,0
2023-02-27T05:45:32.603Z,0
2023-02-27T05:46:32.539Z,0
2023-02-27T05:47:32.506Z,0
2023-02-27T05:48:32.568Z,0
2023-02-27T05:49:32.559Z,0
2023-02-27T05:50:32.569Z,0
2023-02-27T05:51:32.548Z,0
2023-02-27T05:52:32.537Z,0
2023-02-27T05:53:32.529Z,0
2023-02-27T05:54:32.532Z,0
2023-02-27T05:55:32.531Z,0.36
2023-02-27T05:56:32.628Z,0.36
2023-02-27T05:57:32.515Z,0
2023-02-27T05:58:32.532Z,1.22
2023-02-27T05:59:33.893Z,1.22
2023-02-27T06:00:32.543Z,1.22
2023-02-27T06:01:32.520Z,1.71
2023-02-27T06:02:32.655Z,2.08
2023-02-27T06:03:32.623Z,2.57
2023-02-27T06:04:32.720Z,2.08
2023-02-27T06:05:32.522Z,2.57
2023-02-27T06:06:32.564Z,2.57
2023-02-27T06:07:32.572Z,2.94
2023-02-27T06:08:32.544Z,2.57
2023-02-27T06:09:32.495Z,3.43
2023-02-27T06:10:32.581Z,2.57
2023-02-27T06:11:32.524Z,3.79
2023-02-27T06:12:32.571Z,4.28
2023-02-27T06:13:32.532Z,4.28
2023-02-27T06:14:32.581Z,3.79
2023-02-27T06:15:32.560Z,3.79
2023-02-27T06:16:32.585Z,4.28
2023-02-27T06:17:32.555Z,4.77
2023-02-27T06:18:32.538Z,5.14
2023-02-27T06:19:33.705Z,5.14
2023-02-27T06:20:32.535Z,5.14
2023-02-27T06:21:32.553Z,4.28
2023-02-27T06:22:32.545Z,4.77
2023-02-27T06:23:32.542Z,4.77
2023-02-27T06:24:32.597Z,4.77
2023-02-27T06:25:32.520Z,4.28
2023-02-27T06:26:32.571Z,4.77
2023-02-27T06:27:32.662Z,4.77
2023-02-27T06:28:32.660Z,5.14
2023-02-27T06:29:32.519Z,5.14
2023-02-27T06:30:32.594Z,5.63
2023-02-27T06:31:32.509Z,6.48
2023-02-27T06:32:32.544Z,6.85
2023-02-27T06:33:32.534Z,7.34
2023-02-27T06:34:32.514Z,7.7
2023-02-27T06:35:32.740Z,7.7
2023-02-27T06:36:32.526Z,7.7
2023-02-27T06:37:32.519Z,7.34
2023-02-27T06:38:32.535Z,7.7
2023-02-27T06:39:32.510Z,8.19
2023-02-27T06:40:32.558Z,8.56
2023-02-27T06:41:32.507Z,8.56
2023-02-27T06:42:32.546Z,8.56
2023-02-27T06:43:32.496Z,7.34
2023-02-27T06:44:32.512Z,7.7
2023-02-27T06:45:32.510Z,7.34
2023-02-27T06:46:32.598Z,8.19
2023-02-27T06:47:32.510Z,9.54
2023-02-27T06:48:32.547Z,10.77
2023-02-27T06:49:34.110Z,12.11
2023-02-27T06:50:32.590Z,12.97
2023-02-27T06:51:32.572Z,14.31
2023-02-27T06:52:32.572Z,14.31
2023-02-27T06:53:32.497Z,15.53
2023-02-27T06:54:32.581Z,14.68
2023-02-27T06:55:32.588Z,13.33
2023-02-27T06:56:32.559Z,13.33
2023-02-27T06:57:32.506Z,12.48
2023-02-27T06:58:32.536Z,12.11
2023-02-27T06:59:32.968Z,12.11
2023-02-27T07:00:32.557Z,12.11
2023-02-27T07:01:32.579Z,12.97
2023-02-27T07:02:32.538Z,13.33
2023-02-27T07:03:32.613Z,13.33
2023-02-27T07:04:32.605Z,14.68
2023-02-27T07:05:32.490Z,16.88
2023-02-27T07:07:36.212Z,16.88
2023-02-27T07:07:37.477Z,17.25
2023-02-27T07:08:32.573Z,16.88
2023-02-27T07:09:32.504Z,16.39
2023-02-27T07:10:32.531Z,15.53
2023-02-27T07:11:32.509Z,15.53
2023-02-27T07:12:32.582Z,14.31
2023-02-27T07:13:32.552Z,14.31
2023-02-27T07:14:32.541Z,14.68
2023-02-27T07:15:32.523Z,15.17
2023-02-27T07:16:32.578Z,15.53
2023-02-27T07:17:32.510Z,16.02
2023-02-27T07:18:32.540Z,16.39
2023-02-27T07:19:32.489Z,16.02
2023-02-27T07:20:32.522Z,16.39
2023-02-27T07:21:32.508Z,15.53
2023-02-27T07:22:32.538Z,15.53
2023-02-27T07:23:32.662Z,16.39
2023-02-27T07:24:32.545Z,17.25
2023-02-27T07:25:32.513Z,16.88
2023-02-27T07:26:32.522Z,16.39
2023-02-27T07:27:32.521Z,17.25
2023-02-27T07:28:32.646Z,20.31
2023-02-27T07:29:32.502Z,21.16
2023-02-27T07:30:32.549Z,22.87
2023-02-27T07:31:32.614Z,21.65
2023-02-27T07:32:32.548Z,20.31
2023-02-27T07:33:32.522Z,19.45
2023-02-27T07:34:32.521Z,19.45
2023-02-27T07:35:32.550Z,19.45
2023-02-27T07:36:32.538Z,20.31
2023-02-27T07:37:32.500Z,19.45
2023-02-27T07:38:32.500Z,20.31
2023-02-27T07:39:32.576Z,20.31
2023-02-27T07:40:32.588Z,20.31
2023-02-27T07:41:32.574Z,20.31
2023-02-27T07:42:32.531Z,21.16
2023-02-27T07:43:32.513Z,21.16
2023-02-27T07:44:32.546Z,22.87
2023-02-27T07:45:32.505Z,23.36
2023-02-27T07:46:32.610Z,22.02
2023-02-27T07:47:32.527Z,21.65
2023-02-27T07:48:32.573Z,20.8
2023-02-27T07:49:32.583Z,21.65
2023-02-27T07:50:32.538Z,22.02
2023-02-27T07:51:32.492Z,23.85
2023-02-27T07:52:32.545Z,23.36
2023-02-27T07:53:32.585Z,24.22
2023-02-27T07:54:35.323Z,29.48
2023-02-27T07:55:32.539Z,30.7
2023-02-27T07:56:32.528Z,29.48
2023-02-27T07:57:32.512Z,28.99
2023-02-27T07:58:32.532Z,28.99
2023-02-27T07:59:32.553Z,26.42
2023-02-27T08:00:32.551Z,25.94
2023-02-27T08:01:32.543Z,28.63
2023-02-27T08:02:32.646Z,34.62
2023-02-27T08:03:32.515Z,39.39
2023-02-27T08:04:32.536Z,43.31
2023-02-27T08:05:32.502Z,40.73
2023-02-27T08:06:32.525Z,34.62
2023-02-27T08:07:32.522Z,28.99
2023-02-27T08:08:32.553Z,27.65
2023-02-27T08:09:32.599Z,29.85
2023-02-27T08:10:32.589Z,31.19
2023-02-27T08:11:32.512Z,32.9
2023-02-27T08:12:32.523Z,35.48
2023-02-27T08:14:02.564Z,33.76
2023-02-27T08:14:32.580Z,32.42
2023-02-27T08:15:32.524Z,33.76
2023-02-27T08:16:33.030Z,30.34
2023-02-27T08:17:32.509Z,28.99
2023-02-27T08:18:34.278Z,29.85
2023-02-27T08:19:32.716Z,29.85
2023-02-27T08:20:32.578Z,31.19
2023-02-27T08:21:32.563Z,35.11
2023-02-27T08:22:32.529Z,34.62
2023-02-27T08:23:32.538Z,34.62
2023-02-27T08:24:32.513Z,34.25
2023-02-27T08:25:32.529Z,34.62
2023-02-27T08:26:32.515Z,35.11
2023-02-27T08:27:32.507Z,34.62
2023-02-27T08:28:32.533Z,33.39
2023-02-27T08:29:32.552Z,34.62
2023-02-27T08:30:32.522Z,33.76
2023-02-27T08:31:32.647Z,33.76
2023-02-27T08:32:32.598Z,36.82
2023-02-27T08:33:32.540Z,35.11
2023-02-27T08:34:32.505Z,36.82
2023-02-27T08:35:32.663Z,39.02
2023-02-27T08:36:32.512Z,37.68
2023-02-27T08:37:32.561Z,35.97
2023-02-27T08:38:32.532Z,36.82
2023-02-27T08:39:34.091Z,36.82
2023-02-27T08:40:32.561Z,37.68
2023-02-27T08:41:32.534Z,37.68
2023-02-27T08:42:32.517Z,36.33
2023-02-27T08:43:32.510Z,36.82
2023-02-27T08:44:32.493Z,38.17
2023-02-27T08:45:32.585Z,37.68
2023-02-27T08:46:32.522Z,39.39
2023-02-27T08:47:32.509Z,39.39
2023-02-27T08:48:32.537Z,37.68
2023-02-27T08:49:32.502Z,36.82
2023-02-27T08:50:32.537Z,35.11
2023-02-27T08:51:32.511Z,35.97
2023-02-27T08:52:32.514Z,36.33
2023-02-27T08:53:32.537Z,35.97
2023-02-27T08:54:32.528Z,34.62
2023-02-27T08:55:32.559Z,35.97
2023-02-27T08:56:32.503Z,37.19
2023-02-27T08:57:32.551Z,37.68
2023-02-27T08:58:32.521Z,37.19
2023-02-27T08:59:33.813Z,37.68
2023-02-27T09:00:32.521Z,36.82
2023-02-27T09:01:32.571Z,36.82
2023-02-27T09:02:32.609Z,37.19
2023-02-27T09:03:32.515Z,40.24
2023-02-27T09:04:32.506Z,41.1
2023-02-27T09:05:32.653Z,41.96
2023-02-27T09:06:33.055Z,41.1
2023-02-27T09:07:32.511Z,40.73
2023-02-27T09:08:32.515Z,40.24
2023-02-27T09:09:32.550Z,38.53
2023-02-27T09:10:32.548Z,37.68
2023-02-27T09:11:32.553Z,38.17
2023-02-27T09:12:32.504Z,37.19
2023-02-27T09:13:32.540Z,36.82
2023-02-27T09:14:32.564Z,38.17
2023-02-27T09:15:32.593Z,38.17
2023-02-27T09:16:32.627Z,39.39
2023-02-27T09:17:32.524Z,41.96
2023-02-27T09:18:32.519Z,42.94
2023-02-27T09:19:33.204Z,44.16
2023-02-27T09:20:32.509Z,47.22
2023-02-27T09:21:32.539Z,49.79
2023-02-27T09:22:32.500Z,51.5
2023-02-27T09:23:32.500Z,57.25
2023-02-27T09:24:32.508Z,60.68
2023-02-27T09:25:32.508Z,60.19
2023-02-27T09:26:44.269Z,61.53
2023-02-27T09:27:32.541Z,60.68
2023-02-27T09:28:32.558Z,58.97
2023-02-27T09:29:33.310Z,55.41
2023-02-27T09:30:32.512Z,53.34
2023-02-27T09:31:33.579Z,52.48
2023-02-27T09:32:32.706Z,50.65
2023-02-27T09:33:32.526Z,50.28
2023-02-27T09:34:32.498Z,51.5
2023-02-27T09:35:32.582Z,54.19
2023-02-27T09:36:32.547Z,54.56
2023-02-27T09:37:32.501Z,57.25
2023-02-27T09:38:32.489Z,61.53
2023-02-27T09:39:33.533Z,66.8
2023-02-27T09:40:32.524Z,65.45
2023-02-27T09:41:32.508Z,60.68
2023-02-27T09:42:32.509Z,58.11
2023-02-27T09:43:32.519Z,60.19
2023-02-27T09:44:45.123Z,65.45
2023-02-27T09:45:32.527Z,67.16
2023-02-27T09:46:32.512Z,68.02
2023-02-27T09:47:32.504Z,71.07
2023-02-27T09:48:32.505Z,68.51
2023-02-27T09:49:33.425Z,66.31
2023-02-27T09:50:33.913Z,68.02
2023-02-27T09:51:32.543Z,68.51
2023-02-27T09:52:32.541Z,72.42
2023-02-27T09:53:32.515Z,72.42
2023-02-27T09:54:32.486Z,69.36
2023-02-27T09:55:32.627Z,70.71
2023-02-27T09:56:32.613Z,74.99
2023-02-27T09:57:32.510Z,78.9
2023-02-27T09:58:32.488Z,87.1
2023-02-27T09:59:32.534Z,90.65
2023-02-27T10:00:32.630Z,93.58
2023-02-27T10:01:32.516Z,90.16
2023-02-27T10:02:32.593Z,86.24
2023-02-27T10:03:32.596Z,81.48
2023-02-27T10:04:32.482Z,80.62
2023-02-27T10:05:32.582Z,83.19
2023-02-27T10:06:32.508Z,88.45
2023-02-27T10:07:32.534Z,92.36
2023-02-27T10:08:32.549Z,98.85
2023-02-27T10:09:32.991Z,106.68
2023-02-27T10:10:32.535Z,111.44
2023-02-27T10:11:32.534Z,120.99
2023-02-27T10:12:32.529Z,113.65
2023-02-27T10:13:32.510Z,110.59
2023-02-27T10:14:32.507Z,106.19
2023-02-27T10:15:32.569Z,106.68
2023-02-27T10:16:32.565Z,106.68
2023-02-27T10:17:32.507Z,107.04
2023-02-27T10:18:32.479Z,101.41
2023-02-27T10:19:32.553Z,103.61
2023-02-27T10:20:32.539Z,102.76
2023-02-27T10:21:32.964Z,94.07
2023-02-27T10:22:32.491Z,94.56
2023-02-27T10:23:32.531Z,98.36
2023-02-27T10:24:32.494Z,103.13
2023-02-27T10:25:32.593Z,105.33
2023-02-27T10:26:32.509Z,108.39
2023-02-27T10:27:32.511Z,105.82
2023-02-27T10:28:32.507Z,97.5
2023-02-27T10:29:32.606Z,89.31
2023-02-27T10:30:34.949Z,87.59
2023-02-27T10:31:32.619Z,90.65
2023-02-27T10:32:32.478Z,95.42
2023-02-27T10:33:32.588Z,101.41
2023-02-27T10:34:32.511Z,110.1
2023-02-27T10:35:32.541Z,111.82
2023-02-27T10:36:34.474Z,107.53
2023-02-27T10:37:32.544Z,109.24
2023-02-27T10:38:32.474Z,112.67
2023-02-27T10:39:33.713Z,110.1
2023-02-27T10:40:32.492Z,102.76
2023-02-27T10:41:32.601Z,106.19
2023-02-27T10:42:32.516Z,117.07
2023-02-27T10:43:32.547Z,117.07
2023-02-27T10:44:32.470Z,114.51
2023-02-27T10:45:32.515Z,110.1
2023-02-27T10:46:32.548Z,108.39
2023-02-27T10:47:32.555Z,111.44
2023-02-27T10:48:32.496Z,120.99
2023-02-27T10:49:32.569Z,119.27
2023-02-27T10:50:32.495Z,110.59
2023-02-27T10:51:32.525Z,111.44
2023-02-27T10:52:32.512Z,101.05
2023-02-27T10:53:32.547Z,95.79
2023-02-27T10:54:32.526Z,90.16
2023-02-27T10:55:32.513Z,91.51
2023-02-27T10:56:32.481Z,131.88
2023-02-27T10:57:32.543Z,105.33
2023-02-27T10:58:34.412Z,97.13
2023-02-27T10:59:34.109Z,110.1
2023-02-27T11:00:32.583Z,100.56
2023-02-27T11:01:32.617Z,109.24
2023-02-27T11:02:32.567Z,92.36
2023-02-27T11:03:32.493Z,113.65
2023-02-27T11:04:32.679Z,117.93
2023-02-27T11:05:32.516Z,116.58
2023-02-27T11:06:32.476Z,99.34
2023-02-27T11:07:32.512Z,86.24
2023-02-27T11:08:32.492Z,116.22
2023-02-27T11:09:32.518Z,79.27
2023-02-27T11:10:32.566Z,127.96
2023-02-27T11:11:32.565Z,155.24
2023-02-27T11:12:32.521Z,87.1
2023-02-27T11:13:32.560Z,53.7
2023-02-27T11:14:32.492Z,50.65
2023-02-27T11:15:32.629Z,50.65
2023-02-27T11:16:32.483Z,50.28
2023-02-27T11:17:32.560Z,49.42
2023-02-27T11:18:32.466Z,63.24
2023-02-27T11:19:32.505Z,106.68
2023-02-27T11:20:32.477Z,127.96
2023-02-27T11:21:32.559Z,166.99
2023-02-27T11:22:32.569Z,165.27
2023-02-27T11:23:32.502Z,140.44
2023-02-27T11:24:32.513Z,80.25
2023-02-27T11:25:32.510Z,81.48
2023-02-27T11:26:32.568Z,48.93
2023-02-27T11:27:32.516Z,125.27
2023-02-27T11:28:32.457Z,103.13
2023-02-27T11:29:32.491Z,111.44
2023-02-27T11:30:32.517Z,122.7
2023-02-27T11:31:32.582Z,153.9
2023-02-27T11:32:32.516Z,130.04
2023-02-27T11:33:32.510Z,112.67
2023-02-27T11:34:32.542Z,111.44
2023-02-27T11:35:32.635Z,107.9
2023-02-27T11:36:32.515Z,98.36
2023-02-27T11:37:32.528Z,130.9
2023-02-27T11:38:32.530Z,147.05
2023-02-27T11:39:33.114Z,159.53
2023-02-27T11:40:32.472Z,188.64
2023-02-27T11:41:32.500Z,183.02
2023-02-27T11:42:32.508Z,205.52
2023-02-27T11:43:32.515Z,192.07
2023-02-27T11:44:43.228Z,177.39
2023-02-27T11:46:09.437Z,202.59
2023-02-27T11:46:46.849Z,160.02
2023-02-27T11:47:32.621Z,146.19
2023-02-27T11:48:32.512Z,49.42
2023-02-27T11:49:33.739Z,146.19
2023-02-27T11:50:32.524Z,149.98
2023-02-27T11:51:32.477Z,149.61
2023-02-27T11:52:32.492Z,127.96
2023-02-27T11:53:32.513Z,119.27
2023-02-27T11:54:32.572Z,131.39
2023-02-27T11:55:32.506Z,181.3
2023-02-27T11:56:34.142Z,155.24
2023-02-27T11:57:32.520Z,143.5
2023-02-27T11:58:32.540Z,152.19
2023-02-27T11:59:34.084Z,78.9
2023-02-27T12:00:32.528Z,68.87
2023-02-27T12:01:32.497Z,56.76
2023-02-27T12:02:32.534Z,70.22
2023-02-27T12:03:32.483Z,81.97
2023-02-27T12:04:32.490Z,79.76
2023-02-27T12:05:32.581Z,92.73
2023-02-27T12:06:32.519Z,115.73
2023-02-27T12:07:32.512Z,159.16
2023-02-27T12:08:32.493Z,141.78
2023-02-27T12:09:32.513Z,155.73
2023-02-27T12:10:32.523Z,145.7
2023-02-27T12:11:32.833Z,100.19
2023-02-27T12:12:32.515Z,100.56
2023-02-27T12:13:32.522Z,82.33
2023-02-27T12:14:32.655Z,95.79
2023-02-27T12:15:32.500Z,118.42
2023-02-27T12:16:33.314Z,125.76
2023-02-27T12:17:32.510Z,143.99
2023-02-27T12:18:32.506Z,139.22
2023-02-27T12:19:32.478Z,120.5
2023-02-27T12:20:32.515Z,68.51
2023-02-27T12:21:32.523Z,104.96
2023-02-27T12:22:32.520Z,108.88
2023-02-27T12:23:32.486Z,113.65
2023-02-27T12:24:32.480Z,118.78
2023-02-27T12:25:32.454Z,115.36
2023-02-27T12:26:32.594Z,96.65
2023-02-27T12:27:32.510Z,93.58
2023-02-27T12:28:32.579Z,114.87
2023-02-27T12:29:33.826Z,132.24
2023-02-27T12:30:32.503Z,103.13
2023-02-27T12:31:32.572Z,95.79
2023-02-27T12:32:32.639Z,139.58
2023-02-27T12:33:32.490Z,137.02
2023-02-27T12:34:32.493Z,156.1
2023-02-27T12:35:32.529Z,158.3
2023-02-27T12:36:32.498Z,150.96
2023-02-27T12:37:32.455Z,132.73
2023-02-27T12:38:32.504Z,130.9
2023-02-27T12:39:32.468Z,140.07
2023-02-27T12:40:32.480Z,133.1
2023-02-27T12:41:32.482Z,150.47
2023-02-27T12:42:32.514Z,160.02
2023-02-27T12:43:32.547Z,150.96
2023-02-27T12:44:32.488Z,152.19
2023-02-27T12:45:32.557Z,140.93
2023-02-27T12:46:32.512Z,131.39
2023-02-27T12:47:32.563Z,135.67
2023-02-27T12:48:32.465Z,155.73
2023-02-27T12:49:33.396Z,156.95
2023-02-27T12:50:32.501Z,134.81
2023-02-27T12:51:32.481Z,94.56
2023-02-27T12:52:32.500Z,71.93
2023-02-27T12:53:32.472Z,112.67
2023-02-27T12:54:32.510Z,140.07
2023-02-27T12:55:32.464Z,47.71
2023-02-27T12:56:32.468Z,62.88
2023-02-27T12:57:32.440Z,48.07
2023-02-27T12:58:32.520Z,49.42
2023-02-27T12:59:32.478Z,52.48
2023-02-27T13:00:32.486Z,189.49
2023-02-27T13:01:32.619Z,176.53
2023-02-27T13:02:32.522Z,74.14
2023-02-27T13:03:32.503Z,48.93
2023-02-27T13:04:32.486Z,41.59
2023-02-27T13:05:32.715Z,126.12
2023-02-27T13:06:32.498Z,46.36
2023-02-27T13:07:32.487Z,169.07
2023-02-27T13:08:32.499Z,160.87
2023-02-27T13:09:34.640Z,71.56
2023-02-27T13:10:32.506Z,71.93
2023-02-27T13:11:32.468Z,68.02
2023-02-27T13:12:32.466Z,61.53
2023-02-27T13:13:32.478Z,144.36
2023-02-27T13:14:32.511Z,59.82
2023-02-27T13:15:32.524Z,60.19
2023-02-27T13:16:32.536Z,68.51
2023-02-27T13:17:32.543Z,71.07
2023-02-27T13:18:32.504Z,59.82
2023-02-27T13:19:34.340Z,57.25
2023-02-27T13:20:32.459Z,57.62
2023-02-27T13:21:32.512Z,58.97
2023-02-27T13:22:32.494Z,58.11
2023-02-27T13:23:32.509Z,56.76
2023-02-27T13:24:32.487Z,40.24
2023-02-27T13:25:32.514Z,60.68
2023-02-27T13:26:32.507Z,58.48
2023-02-27T13:27:32.506Z,128.82
2023-02-27T13:28:32.478Z,60.68
2023-02-27T13:29:34.730Z,133.1
2023-02-27T13:30:32.474Z,55.41
2023-02-27T13:31:32.558Z,45.02
2023-02-27T13:32:43.086Z,38.53
2023-02-27T13:33:32.500Z,38.53
2023-02-27T13:34:32.511Z,38.17
2023-02-27T13:35:32.585Z,38.17
2023-02-27T13:36:32.480Z,38.17
2023-02-27T13:37:32.541Z,38.17